sensor_id;sensor_type;location;lat;lon;timestamp;P1;durP1;ratioP1;P2;durP2;ratioP2
43487;SDS011;29078;41.932;25.554;2022-09-27T00:01:21;5.18;;;4.50;;
43487;SDS011;29078;41.932;25.554;2022-09-27T00:03:47;4.75;;;4.25;;
43487;SDS011;29078;41.932;25.554;2022-09-27T00:08:40;4.07;;;3.72;;
43487;SDS011;29078;41.932;25.554;2022-09-27T00:11:09;4.70;;;4.15;;
43487;SDS011;29078;41.932;25.554;2022-09-27T00:13:48;5.88;;;4.32;;
43487;SDS011;29078;41.932;25.554;2022-09-27T00:16:13;5.57;;;4.85;;
43487;SDS011;29078;41.932;25.554;2022-09-27T00:18:39;4.85;;;4.45;;
43487;SDS011;29078;41.932;25.554;2022-09-27T00:21:08;5.43;;;4.85;;
43487;SDS011;29078;41.932;25.554;2022-09-27T00:23:35;5.30;;;4.78;;
43487;SDS011;29078;41.932;25.554;2022-09-27T00:26:01;6.18;;;4.93;;
43487;SDS011;29078;41.932;25.554;2022-09-27T00:28:27;5.65;;;5.05;;
43487;SDS011;29078;41.932;25.554;2022-09-27T00:30:53;6.70;;;4.63;;
43487;SDS011;29078;41.932;25.554;2022-09-27T00:33:18;5.65;;;5.15;;
43487;SDS011;29078;41.932;25.554;2022-09-27T00:35:44;6.63;;;5.47;;
43487;SDS011;29078;41.932;25.554;2022-09-27T00:38:10;5.40;;;4.90;;
43487;SDS011;29078;41.932;25.554;2022-09-27T00:40:36;5.13;;;4.65;;
43487;SDS011;29078;41.932;25.554;2022-09-27T00:43:04;6.70;;;4.90;;
43487;SDS011;29078;41.932;25.554;2022-09-27T00:45:43;5.57;;;5.07;;
43487;SDS011;29078;41.932;25.554;2022-09-27T00:48:12;11.52;;;4.80;;
43487;SDS011;29078;41.932;25.554;2022-09-27T00:50:42;7.45;;;5.28;;
43487;SDS011;29078;41.932;25.554;2022-09-27T00:53:16;6.00;;;5.43;;
43487;SDS011;29078;41.932;25.554;2022-09-27T00:55:58;6.38;;;5.03;;
43487;SDS011;29078;41.932;25.554;2022-09-27T00:58:31;10.77;;;5.25;;
43487;SDS011;29078;41.932;25.554;2022-09-27T01:01:02;8.13;;;5.95;;
43487;SDS011;29078;41.932;25.554;2022-09-27T01:05:56;5.63;;;5.13;;
43487;SDS011;29078;41.932;25.554;2022-09-27T01:08:23;6.95;;;5.10;;
43487;SDS011;29078;41.932;25.554;2022-09-27T01:10:52;6.80;;;5.30;;
43487;SDS011;29078;41.932;25.554;2022-09-27T01:13:37;5.82;;;5.22;;
43487;SDS011;29078;41.932;25.554;2022-09-27T01:16:26;5.18;;;4.68;;
43487;SDS011;29078;41.932;25.554;2022-09-27T01:19:28;7.72;;;4.68;;
43487;SDS011;29078;41.932;25.554;2022-09-27T01:32:50;6.47;;;4.88;;
43487;SDS011;29078;41.932;25.554;2022-09-27T01:38:39;5.15;;;4.68;;
43487;SDS011;29078;41.932;25.554;2022-09-27T01:41:07;5.38;;;4.10;;
43487;SDS011;29078;41.932;25.554;2022-09-27T01:46:28;5.63;;;4.00;;
43487;SDS011;29078;41.932;25.554;2022-09-27T01:49:01;5.05;;;4.47;;
43487;SDS011;29078;41.932;25.554;2022-09-27T01:51:57;5.40;;;4.47;;
43487;SDS011;29078;41.932;25.554;2022-09-27T01:54:24;6.25;;;4.40;;
43487;SDS011;29078;41.932;25.554;2022-09-27T01:56:55;6.22;;;4.15;;
43487;SDS011;29078;41.932;25.554;2022-09-27T01:59:25;4.57;;;4.18;;
43487;SDS011;29078;41.932;25.554;2022-09-27T02:01:56;5.00;;;4.07;;
43487;SDS011;29078;41.932;25.554;2022-09-27T02:04:27;5.55;;;4.25;;
43487;SDS011;29078;41.932;25.554;2022-09-27T02:06:57;4.60;;;4.20;;
43487;SDS011;29078;41.932;25.554;2022-09-27T02:09:56;5.00;;;4.50;;
43487;SDS011;29078;41.932;25.554;2022-09-27T02:12:31;5.15;;;4.32;;
43487;SDS011;29078;41.932;25.554;2022-09-27T02:15:03;4.72;;;3.85;;
43487;SDS011;29078;41.932;25.554;2022-09-27T02:17:39;7.90;;;4.63;;
43487;SDS011;29078;41.932;25.554;2022-09-27T02:20:29;4.85;;;4.45;;
43487;SDS011;29078;41.932;25.554;2022-09-27T02:23:12;6.28;;;4.60;;
43487;SDS011;29078;41.932;25.554;2022-09-27T02:25:47;4.22;;;3.83;;
43487;SDS011;29078;41.932;25.554;2022-09-27T02:30:50;6.13;;;4.50;;
43487;SDS011;29078;41.932;25.554;2022-09-27T02:33:17;5.28;;;4.45;;
43487;SDS011;29078;41.932;25.554;2022-09-27T02:35:44;5.65;;;4.38;;
43487;SDS011;29078;41.932;25.554;2022-09-27T02:38:10;4.95;;;4.45;;
43487;SDS011;29078;41.932;25.554;2022-09-27T02:40:41;7.55;;;5.40;;
43487;SDS011;29078;41.932;25.554;2022-09-27T02:43:08;5.75;;;4.70;;
43487;SDS011;29078;41.932;25.554;2022-09-27T02:48:21;6.18;;;5.20;;
43487;SDS011;29078;41.932;25.554;2022-09-27T02:51:16;5.53;;;5.03;;
43487;SDS011;29078;41.932;25.554;2022-09-27T03:04:53;5.65;;;5.03;;
43487;SDS011;29078;41.932;25.554;2022-09-27T03:07:23;6.88;;;5.57;;
43487;SDS011;29078;41.932;25.554;2022-09-27T03:09:50;6.93;;;4.97;;
43487;SDS011;29078;41.932;25.554;2022-09-27T03:12:17;10.48;;;5.30;;
43487;SDS011;29078;41.932;25.554;2022-09-27T03:14:56;6.07;;;5.47;;
43487;SDS011;29078;41.932;25.554;2022-09-27T03:17:22;6.15;;;5.43;;
43487;SDS011;29078;41.932;25.554;2022-09-27T03:19:48;6.30;;;5.50;;
43487;SDS011;29078;41.932;25.554;2022-09-27T03:22:13;7.05;;;5.38;;
43487;SDS011;29078;41.932;25.554;2022-09-27T03:24:39;6.30;;;5.32;;
43487;SDS011;29078;41.932;25.554;2022-09-27T03:27:05;6.93;;;5.38;;
43487;SDS011;29078;41.932;25.554;2022-09-27T03:29:30;6.72;;;5.60;;
43487;SDS011;29078;41.932;25.554;2022-09-27T03:31:56;8.80;;;5.10;;
43487;SDS011;29078;41.932;25.554;2022-09-27T03:34:22;5.32;;;4.82;;
43487;SDS011;29078;41.932;25.554;2022-09-27T03:36:47;5.50;;;4.97;;
43487;SDS011;29078;41.932;25.554;2022-09-27T03:39:13;6.30;;;5.07;;
43487;SDS011;29078;41.932;25.554;2022-09-27T03:41:38;8.23;;;5.57;;
43487;SDS011;29078;41.932;25.554;2022-09-27T03:44:05;11.05;;;5.95;;
43487;SDS011;29078;41.932;25.554;2022-09-27T03:46:30;7.65;;;5.00;;
43487;SDS011;29078;41.932;25.554;2022-09-27T03:48:56;7.30;;;5.40;;
43487;SDS011;29078;41.932;25.554;2022-09-27T03:51:21;6.03;;;4.85;;
43487;SDS011;29078;41.932;25.554;2022-09-27T03:53:46;5.32;;;4.82;;
43487;SDS011;29078;41.932;25.554;2022-09-27T03:56:13;8.20;;;5.18;;
43487;SDS011;29078;41.932;25.554;2022-09-27T03:58:38;5.57;;;4.82;;
43487;SDS011;29078;41.932;25.554;2022-09-27T04:01:04;7.80;;;5.43;;
43487;SDS011;29078;41.932;25.554;2022-09-27T04:03:29;5.70;;;5.10;;
43487;SDS011;29078;41.932;25.554;2022-09-27T04:05:54;5.95;;;5.25;;
43487;SDS011;29078;41.932;25.554;2022-09-27T04:08:20;8.38;;;6.00;;
43487;SDS011;29078;41.932;25.554;2022-09-27T04:10:49;10.05;;;6.03;;
43487;SDS011;29078;41.932;25.554;2022-09-27T04:13:14;8.52;;;5.63;;
43487;SDS011;29078;41.932;25.554;2022-09-27T04:15:41;5.63;;;5.05;;
43487;SDS011;29078;41.932;25.554;2022-09-27T04:18:07;9.20;;;5.55;;
43487;SDS011;29078;41.932;25.554;2022-09-27T04:20:33;6.18;;;5.47;;
43487;SDS011;29078;41.932;25.554;2022-09-27T04:23:00;10.80;;;6.40;;
43487;SDS011;29078;41.932;25.554;2022-09-27T04:25:25;8.65;;;5.57;;
43487;SDS011;29078;41.932;25.554;2022-09-27T04:27:51;6.43;;;5.63;;
43487;SDS011;29078;41.932;25.554;2022-09-27T04:30:19;7.82;;;6.22;;
43487;SDS011;29078;41.932;25.554;2022-09-27T04:32:45;7.10;;;6.22;;
43487;SDS011;29078;41.932;25.554;2022-09-27T04:35:11;7.97;;;6.07;;
43487;SDS011;29078;41.932;25.554;2022-09-27T04:37:55;8.45;;;6.15;;
43487;SDS011;29078;41.932;25.554;2022-09-27T04:40:21;6.82;;;5.68;;
43487;SDS011;29078;41.932;25.554;2022-09-27T04:42:47;6.65;;;5.80;;
43487;SDS011;29078;41.932;25.554;2022-09-27T04:45:13;6.05;;;5.18;;
43487;SDS011;29078;41.932;25.554;2022-09-27T04:47:43;9.45;;;5.97;;
43487;SDS011;29078;41.932;25.554;2022-09-27T04:50:12;7.63;;;5.85;;
43487;SDS011;29078;41.932;25.554;2022-09-27T04:52:38;6.22;;;5.35;;
43487;SDS011;29078;41.932;25.554;2022-09-27T04:55:04;6.53;;;5.68;;
43487;SDS011;29078;41.932;25.554;2022-09-27T04:57:31;7.00;;;5.60;;
43487;SDS011;29078;41.932;25.554;2022-09-27T04:59:56;8.13;;;5.35;;
43487;SDS011;29078;41.932;25.554;2022-09-27T05:02:24;5.82;;;4.82;;
43487;SDS011;29078;41.932;25.554;2022-09-27T05:04:51;7.03;;;5.18;;
43487;SDS011;29078;41.932;25.554;2022-09-27T05:07:17;5.93;;;4.70;;
43487;SDS011;29078;41.932;25.554;2022-09-27T05:09:42;6.80;;;5.20;;
43487;SDS011;29078;41.932;25.554;2022-09-27T05:12:09;7.05;;;5.20;;
43487;SDS011;29078;41.932;25.554;2022-09-27T05:14:35;8.23;;;5.03;;
43487;SDS011;29078;41.932;25.554;2022-09-27T05:17:01;6.22;;;4.75;;
43487;SDS011;29078;41.932;25.554;2022-09-27T05:19:27;8.35;;;4.80;;
43487;SDS011;29078;41.932;25.554;2022-09-27T05:21:52;8.65;;;4.90;;
43487;SDS011;29078;41.932;25.554;2022-09-27T05:24:17;6.15;;;4.45;;
43487;SDS011;29078;41.932;25.554;2022-09-27T05:26:43;7.65;;;4.85;;
43487;SDS011;29078;41.932;25.554;2022-09-27T05:29:10;9.43;;;5.15;;
43487;SDS011;29078;41.932;25.554;2022-09-27T05:31:36;5.97;;;5.10;;
43487;SDS011;29078;41.932;25.554;2022-09-27T05:34:01;9.10;;;4.85;;
43487;SDS011;29078;41.932;25.554;2022-09-27T05:36:27;7.35;;;4.70;;
43487;SDS011;29078;41.932;25.554;2022-09-27T05:38:52;7.47;;;4.95;;
43487;SDS011;29078;41.932;25.554;2022-09-27T05:41:18;7.25;;;5.00;;
43487;SDS011;29078;41.932;25.554;2022-09-27T05:43:44;7.35;;;5.68;;
43487;SDS011;29078;41.932;25.554;2022-09-27T05:46:11;5.80;;;4.45;;
43487;SDS011;29078;41.932;25.554;2022-09-27T05:48:36;6.30;;;4.55;;
43487;SDS011;29078;41.932;25.554;2022-09-27T05:51:02;7.93;;;5.35;;
43487;SDS011;29078;41.932;25.554;2022-09-27T05:53:28;7.18;;;5.32;;
43487;SDS011;29078;41.932;25.554;2022-09-27T05:55:53;8.10;;;5.15;;
43487;SDS011;29078;41.932;25.554;2022-09-27T05:58:19;7.57;;;5.32;;
43487;SDS011;29078;41.932;25.554;2022-09-27T06:00:44;7.32;;;5.50;;
43487;SDS011;29078;41.932;25.554;2022-09-27T06:03:10;8.00;;;4.72;;
43487;SDS011;29078;41.932;25.554;2022-09-27T06:05:37;7.30;;;4.95;;
43487;SDS011;29078;41.932;25.554;2022-09-27T06:08:05;7.30;;;4.97;;
43487;SDS011;29078;41.932;25.554;2022-09-27T06:10:34;7.47;;;4.70;;
43487;SDS011;29078;41.932;25.554;2022-09-27T06:13:03;9.18;;;4.43;;
43487;SDS011;29078;41.932;25.554;2022-09-27T06:15:31;10.52;;;4.85;;
43487;SDS011;29078;41.932;25.554;2022-09-27T06:18:01;7.53;;;4.22;;
43487;SDS011;29078;41.932;25.554;2022-09-27T06:20:29;9.43;;;4.55;;
43487;SDS011;29078;41.932;25.554;2022-09-27T06:22:55;5.80;;;4.35;;
43487;SDS011;29078;41.932;25.554;2022-09-27T06:25:28;8.82;;;4.22;;
43487;SDS011;29078;41.932;25.554;2022-09-27T06:27:54;7.22;;;4.30;;
43487;SDS011;29078;41.932;25.554;2022-09-27T06:30:19;6.80;;;4.35;;
43487;SDS011;29078;41.932;25.554;2022-09-27T06:32:44;9.82;;;5.05;;
43487;SDS011;29078;41.932;25.554;2022-09-27T06:35:10;8.75;;;5.28;;
43487;SDS011;29078;41.932;25.554;2022-09-27T06:37:35;9.38;;;7.60;;
43487;SDS011;29078;41.932;25.554;2022-09-27T06:40:01;10.02;;;7.65;;
43487;SDS011;29078;41.932;25.554;2022-09-27T06:42:28;10.02;;;6.47;;
43487;SDS011;29078;41.932;25.554;2022-09-27T06:44:54;9.75;;;5.10;;
43487;SDS011;29078;41.932;25.554;2022-09-27T06:47:19;8.88;;;5.20;;
43487;SDS011;29078;41.932;25.554;2022-09-27T06:49:45;8.95;;;5.60;;
43487;SDS011;29078;41.932;25.554;2022-09-27T06:52:10;9.73;;;5.50;;
43487;SDS011;29078;41.932;25.554;2022-09-27T06:54:36;11.48;;;8.48;;
43487;SDS011;29078;41.932;25.554;2022-09-27T06:57:01;12.70;;;8.85;;
43487;SDS011;29078;41.932;25.554;2022-09-27T06:59:27;7.10;;;4.70;;
43487;SDS011;29078;41.932;25.554;2022-09-27T07:02:11;20.50;;;12.25;;
43487;SDS011;29078;41.932;25.554;2022-09-27T07:04:37;9.55;;;6.10;;
43487;SDS011;29078;41.932;25.554;2022-09-27T07:07:03;10.02;;;5.25;;
43487;SDS011;29078;41.932;25.554;2022-09-27T07:09:28;11.90;;;6.28;;
43487;SDS011;29078;41.932;25.554;2022-09-27T07:11:54;10.95;;;5.00;;
43487;SDS011;29078;41.932;25.554;2022-09-27T07:14:20;8.13;;;4.70;;
43487;SDS011;29078;41.932;25.554;2022-09-27T07:16:46;11.57;;;5.13;;
43487;SDS011;29078;41.932;25.554;2022-09-27T07:19:11;8.60;;;4.63;;
43487;SDS011;29078;41.932;25.554;2022-09-27T07:21:38;8.55;;;4.00;;
43487;SDS011;29078;41.932;25.554;2022-09-27T07:24:04;8.68;;;4.82;;
43487;SDS011;29078;41.932;25.554;2022-09-27T07:26:29;8.98;;;4.35;;
43487;SDS011;29078;41.932;25.554;2022-09-27T07:28:55;10.45;;;5.15;;
43487;SDS011;29078;41.932;25.554;2022-09-27T07:31:21;12.27;;;9.15;;
43487;SDS011;29078;41.932;25.554;2022-09-27T07:33:47;10.93;;;6.60;;
43487;SDS011;29078;41.932;25.554;2022-09-27T07:36:12;9.00;;;4.50;;
43487;SDS011;29078;41.932;25.554;2022-09-27T07:38:38;7.20;;;3.70;;
43487;SDS011;29078;41.932;25.554;2022-09-27T07:41:04;10.23;;;4.18;;
43487;SDS011;29078;41.932;25.554;2022-09-27T07:43:35;9.40;;;4.13;;
43487;SDS011;29078;41.932;25.554;2022-09-27T07:46:00;6.55;;;4.72;;
43487;SDS011;29078;41.932;25.554;2022-09-27T07:48:25;8.20;;;4.80;;
43487;SDS011;29078;41.932;25.554;2022-09-27T07:50:52;10.20;;;4.90;;
43487;SDS011;29078;41.932;25.554;2022-09-27T07:53:17;7.70;;;4.13;;
43487;SDS011;29078;41.932;25.554;2022-09-27T07:55:43;8.73;;;3.88;;
43487;SDS011;29078;41.932;25.554;2022-09-27T07:58:09;6.53;;;4.15;;
43487;SDS011;29078;41.932;25.554;2022-09-27T08:00:36;7.25;;;4.40;;
43487;SDS011;29078;41.932;25.554;2022-09-27T08:03:08;10.15;;;4.22;;
43487;SDS011;29078;41.932;25.554;2022-09-27T08:05:35;4.82;;;3.70;;
43487;SDS011;29078;41.932;25.554;2022-09-27T08:08:01;7.25;;;4.10;;
43487;SDS011;29078;41.932;25.554;2022-09-27T08:10:29;8.70;;;4.15;;
43487;SDS011;29078;41.932;25.554;2022-09-27T08:13:02;8.55;;;4.25;;
43487;SDS011;29078;41.932;25.554;2022-09-27T08:15:32;8.05;;;3.92;;
43487;SDS011;29078;41.932;25.554;2022-09-27T08:18:00;7.40;;;4.22;;
43487;SDS011;29078;41.932;25.554;2022-09-27T08:20:25;7.55;;;3.33;;
43487;SDS011;29078;41.932;25.554;2022-09-27T08:22:50;6.07;;;3.47;;
43487;SDS011;29078;41.932;25.554;2022-09-27T08:25:16;7.47;;;4.07;;
43487;SDS011;29078;41.932;25.554;2022-09-27T08:27:41;8.23;;;4.53;;
43487;SDS011;29078;41.932;25.554;2022-09-27T08:30:07;8.05;;;4.55;;
43487;SDS011;29078;41.932;25.554;2022-09-27T08:32:33;8.63;;;4.82;;
43487;SDS011;29078;41.932;25.554;2022-09-27T08:34:58;7.13;;;4.43;;
43487;SDS011;29078;41.932;25.554;2022-09-27T08:37:24;10.00;;;3.60;;
43487;SDS011;29078;41.932;25.554;2022-09-27T08:39:50;8.88;;;4.32;;
43487;SDS011;29078;41.932;25.554;2022-09-27T08:48:07;7.85;;;4.03;;
43487;SDS011;29078;41.932;25.554;2022-09-27T08:50:35;6.85;;;3.45;;
43487;SDS011;29078;41.932;25.554;2022-09-27T08:56:07;9.45;;;5.63;;
43487;SDS011;29078;41.932;25.554;2022-09-27T08:59:09;7.50;;;4.25;;
43487;SDS011;29078;41.932;25.554;2022-09-27T09:01:31;8.18;;;3.50;;
43487;SDS011;29078;41.932;25.554;2022-09-27T09:03:59;15.82;;;7.45;;
43487;SDS011;29078;41.932;25.554;2022-09-27T09:20:49;7.93;;;4.95;;
43487;SDS011;29078;41.932;25.554;2022-09-27T09:23:41;12.73;;;6.45;;
43487;SDS011;29078;41.932;25.554;2022-09-27T09:26:37;10.23;;;5.82;;
43487;SDS011;29078;41.932;25.554;2022-09-27T09:29:47;8.07;;;3.50;;
43487;SDS011;29078;41.932;25.554;2022-09-27T09:32:36;7.38;;;4.22;;
43487;SDS011;29078;41.932;25.554;2022-09-27T09:35:18;9.73;;;4.10;;
43487;SDS011;29078;41.932;25.554;2022-09-27T09:37:49;11.77;;;4.57;;
43487;SDS011;29078;41.932;25.554;2022-09-27T09:40:30;7.93;;;3.42;;
43487;SDS011;29078;41.932;25.554;2022-09-27T09:43:15;9.18;;;3.58;;
43487;SDS011;29078;41.932;25.554;2022-09-27T09:45:46;6.63;;;3.75;;
43487;SDS011;29078;41.932;25.554;2022-09-27T09:48:20;7.00;;;3.95;;
43487;SDS011;29078;41.932;25.554;2022-09-27T09:50:55;5.28;;;2.60;;
43487;SDS011;29078;41.932;25.554;2022-09-27T09:56:22;5.80;;;2.83;;
43487;SDS011;29078;41.932;25.554;2022-09-27T10:01:32;9.60;;;6.18;;
43487;SDS011;29078;41.932;25.554;2022-09-27T10:04:02;7.97;;;4.30;;
43487;SDS011;29078;41.932;25.554;2022-09-27T10:06:28;5.22;;;3.10;;
43487;SDS011;29078;41.932;25.554;2022-09-27T10:08:55;8.93;;;3.92;;
43487;SDS011;29078;41.932;25.554;2022-09-27T10:11:25;5.55;;;2.60;;
43487;SDS011;29078;41.932;25.554;2022-09-27T10:13:54;6.68;;;2.95;;
43487;SDS011;29078;41.932;25.554;2022-09-27T10:16:20;8.65;;;3.22;;
43487;SDS011;29078;41.932;25.554;2022-09-27T10:18:46;7.57;;;3.17;;
43487;SDS011;29078;41.932;25.554;2022-09-27T10:21:19;7.85;;;4.82;;
43487;SDS011;29078;41.932;25.554;2022-09-27T10:26:27;6.05;;;2.90;;
43487;SDS011;29078;41.932;25.554;2022-09-27T10:28:53;7.60;;;3.10;;
43487;SDS011;29078;41.932;25.554;2022-09-27T10:31:19;5.47;;;2.58;;
43487;SDS011;29078;41.932;25.554;2022-09-27T10:33:56;5.03;;;2.60;;
43487;SDS011;29078;41.932;25.554;2022-09-27T10:36:27;7.55;;;2.83;;
43487;SDS011;29078;41.932;25.554;2022-09-27T10:38:59;8.95;;;2.80;;
43487;SDS011;29078;41.932;25.554;2022-09-27T10:41:36;7.70;;;3.53;;
43487;SDS011;29078;41.932;25.554;2022-09-27T10:46:39;7.40;;;3.10;;
43487;SDS011;29078;41.932;25.554;2022-09-27T10:51:33;3.92;;;2.55;;
43487;SDS011;29078;41.932;25.554;2022-09-27T10:54:00;6.20;;;2.83;;
43487;SDS011;29078;41.932;25.554;2022-09-27T10:56:32;6.97;;;3.17;;
43487;SDS011;29078;41.932;25.554;2022-09-27T10:58:59;12.18;;;3.85;;
43487;SDS011;29078;41.932;25.554;2022-09-27T11:01:26;5.65;;;2.78;;
43487;SDS011;29078;41.932;25.554;2022-09-27T11:04:16;5.25;;;2.85;;
43487;SDS011;29078;41.932;25.554;2022-09-27T11:07:18;9.15;;;2.92;;
43487;SDS011;29078;41.932;25.554;2022-09-27T11:09:48;7.95;;;3.90;;
43487;SDS011;29078;41.932;25.554;2022-09-27T11:12:19;7.28;;;3.92;;
43487;SDS011;29078;41.932;25.554;2022-09-27T11:14:57;9.20;;;4.20;;
43487;SDS011;29078;41.932;25.554;2022-09-27T11:17:31;4.78;;;2.45;;
43487;SDS011;29078;41.932;25.554;2022-09-27T11:20:07;7.60;;;2.60;;
43487;SDS011;29078;41.932;25.554;2022-09-27T11:30:33;7.88;;;5.38;;
43487;SDS011;29078;41.932;25.554;2022-09-27T11:36:18;5.63;;;3.35;;
43487;SDS011;29078;41.932;25.554;2022-09-27T11:49:57;2.60;;;2.10;;
43487;SDS011;29078;41.932;25.554;2022-09-27T11:58:33;5.85;;;2.63;;
43487;SDS011;29078;41.932;25.554;2022-09-27T12:07:09;9.00;;;2.85;;
43487;SDS011;29078;41.932;25.554;2022-09-27T12:09:52;7.28;;;3.58;;
43487;SDS011;29078;41.932;25.554;2022-09-27T12:12:25;7.25;;;3.67;;
43487;SDS011;29078;41.932;25.554;2022-09-27T12:14:56;6.03;;;2.92;;
43487;SDS011;29078;41.932;25.554;2022-09-27T12:17:38;3.92;;;2.63;;
43487;SDS011;29078;41.932;25.554;2022-09-27T12:20:13;8.20;;;2.63;;
43487;SDS011;29078;41.932;25.554;2022-09-27T12:22:59;6.97;;;2.88;;
43487;SDS011;29078;41.932;25.554;2022-09-27T12:25:36;3.92;;;2.38;;
43487;SDS011;29078;41.932;25.554;2022-09-27T12:31:20;3.92;;;2.60;;
43487;SDS011;29078;41.932;25.554;2022-09-27T12:34:13;3.47;;;2.53;;
43487;SDS011;29078;41.932;25.554;2022-09-27T12:36:43;6.05;;;2.55;;
43487;SDS011;29078;41.932;25.554;2022-09-27T12:39:27;6.68;;;2.50;;
43487;SDS011;29078;41.932;25.554;2022-09-27T12:42:24;5.13;;;1.97;;
43487;SDS011;29078;41.932;25.554;2022-09-27T12:44:54;3.85;;;2.22;;
43487;SDS011;29078;41.932;25.554;2022-09-27T12:50:29;4.30;;;2.30;;
43487;SDS011;29078;41.932;25.554;2022-09-27T12:56:03;3.33;;;2.58;;
43487;SDS011;29078;41.932;25.554;2022-09-27T13:01:46;4.05;;;3.00;;
43487;SDS011;29078;41.932;25.554;2022-09-27T13:04:21;4.07;;;2.60;;
43487;SDS011;29078;41.932;25.554;2022-09-27T13:09:31;3.58;;;2.17;;
43487;SDS011;29078;41.932;25.554;2022-09-27T13:12:10;4.50;;;2.00;;
43487;SDS011;29078;41.932;25.554;2022-09-27T13:22:56;3.25;;;2.10;;
43487;SDS011;29078;41.932;25.554;2022-09-27T13:31:06;5.90;;;3.25;;
43487;SDS011;29078;41.932;25.554;2022-09-27T13:49:36;4.82;;;2.40;;
43487;SDS011;29078;41.932;25.554;2022-09-27T13:55:03;6.93;;;2.60;;
43487;SDS011;29078;41.932;25.554;2022-09-27T13:57:56;5.25;;;2.38;;
43487;SDS011;29078;41.932;25.554;2022-09-27T14:00:38;3.35;;;2.55;;
43487;SDS011;29078;41.932;25.554;2022-09-27T14:05:58;4.05;;;2.40;;
43487;SDS011;29078;41.932;25.554;2022-09-27T14:10:58;4.88;;;3.05;;
43487;SDS011;29078;41.932;25.554;2022-09-27T14:13:26;7.80;;;3.40;;
43487;SDS011;29078;41.932;25.554;2022-09-27T14:15:53;3.08;;;2.10;;
43487;SDS011;29078;41.932;25.554;2022-09-27T14:18:20;4.53;;;2.80;;
43487;SDS011;29078;41.932;25.554;2022-09-27T14:20:47;5.75;;;2.63;;
43487;SDS011;29078;41.932;25.554;2022-09-27T14:25:49;5.80;;;2.80;;
43487;SDS011;29078;41.932;25.554;2022-09-27T14:28:27;6.90;;;3.42;;
43487;SDS011;29078;41.932;25.554;2022-09-27T14:33:40;5.63;;;2.58;;
43487;SDS011;29078;41.932;25.554;2022-09-27T14:36:06;6.32;;;3.28;;
43487;SDS011;29078;41.932;25.554;2022-09-27T14:39:00;6.57;;;2.75;;
43487;SDS011;29078;41.932;25.554;2022-09-27T14:41:25;2.20;;;1.98;;
43487;SDS011;29078;41.932;25.554;2022-09-27T14:43:51;4.80;;;2.00;;
43487;SDS011;29078;41.932;25.554;2022-09-27T14:46:27;4.78;;;3.00;;
43487;SDS011;29078;41.932;25.554;2022-09-27T14:48:55;3.63;;;2.33;;
43487;SDS011;29078;41.932;25.554;2022-09-27T14:51:25;4.85;;;2.80;;
43487;SDS011;29078;41.932;25.554;2022-09-27T14:53:54;2.95;;;2.03;;
43487;SDS011;29078;41.932;25.554;2022-09-27T14:56:23;9.60;;;1.92;;
43487;SDS011;29078;41.932;25.554;2022-09-27T14:58:56;6.65;;;2.30;;
43487;SDS011;29078;41.932;25.554;2022-09-27T15:01:26;5.43;;;2.53;;
43487;SDS011;29078;41.932;25.554;2022-09-27T15:03:53;3.90;;;2.70;;
43487;SDS011;29078;41.932;25.554;2022-09-27T15:06:19;4.75;;;2.47;;
43487;SDS011;29078;41.932;25.554;2022-09-27T15:08:46;3.05;;;1.75;;
43487;SDS011;29078;41.932;25.554;2022-09-27T15:11:16;4.32;;;2.45;;
43487;SDS011;29078;41.932;25.554;2022-09-27T15:13:43;5.30;;;2.10;;
43487;SDS011;29078;41.932;25.554;2022-09-27T15:16:16;5.65;;;2.35;;
43487;SDS011;29078;41.932;25.554;2022-09-27T15:18:58;6.40;;;1.85;;
43487;SDS011;29078;41.932;25.554;2022-09-27T15:21:30;4.65;;;2.20;;
43487;SDS011;29078;41.932;25.554;2022-09-27T15:24:01;5.60;;;1.98;;
43487;SDS011;29078;41.932;25.554;2022-09-27T15:26:37;6.95;;;1.88;;
43487;SDS011;29078;41.932;25.554;2022-09-27T15:32:03;6.30;;;2.22;;
43487;SDS011;29078;41.932;25.554;2022-09-27T15:34:31;5.43;;;2.10;;
43487;SDS011;29078;41.932;25.554;2022-09-27T15:37:02;4.15;;;2.17;;
43487;SDS011;29078;41.932;25.554;2022-09-27T15:39:34;5.10;;;2.28;;
43487;SDS011;29078;41.932;25.554;2022-09-27T15:42:07;6.53;;;2.50;;
43487;SDS011;29078;41.932;25.554;2022-09-27T15:55:15;4.18;;;2.40;;
43487;SDS011;29078;41.932;25.554;2022-09-27T15:57:42;6.78;;;2.67;;
43487;SDS011;29078;41.932;25.554;2022-09-27T16:00:11;6.88;;;2.42;;
43487;SDS011;29078;41.932;25.554;2022-09-27T16:02:38;4.47;;;2.25;;
43487;SDS011;29078;41.932;25.554;2022-09-27T16:05:03;6.15;;;2.40;;
43487;SDS011;29078;41.932;25.554;2022-09-27T16:07:29;6.43;;;2.78;;
43487;SDS011;29078;41.932;25.554;2022-09-27T16:09:54;5.28;;;2.40;;
43487;SDS011;29078;41.932;25.554;2022-09-27T16:12:20;5.20;;;2.50;;
43487;SDS011;29078;41.932;25.554;2022-09-27T16:14:46;4.50;;;2.35;;
43487;SDS011;29078;41.932;25.554;2022-09-27T16:17:12;5.20;;;2.40;;
43487;SDS011;29078;41.932;25.554;2022-09-27T16:19:38;5.95;;;3.10;;
43487;SDS011;29078;41.932;25.554;2022-09-27T16:22:03;7.13;;;2.55;;
43487;SDS011;29078;41.932;25.554;2022-09-27T16:24:29;5.93;;;2.28;;
43487;SDS011;29078;41.932;25.554;2022-09-27T16:26:56;4.05;;;2.42;;
43487;SDS011;29078;41.932;25.554;2022-09-27T16:29:21;3.13;;;2.30;;
43487;SDS011;29078;41.932;25.554;2022-09-27T16:31:47;7.38;;;2.70;;
43487;SDS011;29078;41.932;25.554;2022-09-27T16:34:12;4.07;;;2.38;;
43487;SDS011;29078;41.932;25.554;2022-09-27T16:36:38;4.43;;;2.60;;
43487;SDS011;29078;41.932;25.554;2022-09-27T16:39:05;5.88;;;2.50;;
43487;SDS011;29078;41.932;25.554;2022-09-27T16:41:31;4.82;;;2.70;;
43487;SDS011;29078;41.932;25.554;2022-09-27T16:43:58;6.97;;;2.53;;
43487;SDS011;29078;41.932;25.554;2022-09-27T16:46:24;4.60;;;2.33;;
43487;SDS011;29078;41.932;25.554;2022-09-27T16:48:49;4.35;;;2.13;;
43487;SDS011;29078;41.932;25.554;2022-09-27T16:51:19;5.03;;;2.05;;
43487;SDS011;29078;41.932;25.554;2022-09-27T16:54:05;6.07;;;2.40;;
43487;SDS011;29078;41.932;25.554;2022-09-27T16:56:32;4.00;;;2.42;;
43487;SDS011;29078;41.932;25.554;2022-09-27T16:58:58;4.03;;;2.13;;
43487;SDS011;29078;41.932;25.554;2022-09-27T17:01:25;5.68;;;2.42;;
43487;SDS011;29078;41.932;25.554;2022-09-27T17:03:52;5.20;;;2.25;;
43487;SDS011;29078;41.932;25.554;2022-09-27T17:06:18;5.57;;;2.35;;
43487;SDS011;29078;41.932;25.554;2022-09-27T17:08:45;6.03;;;2.40;;
43487;SDS011;29078;41.932;25.554;2022-09-27T17:11:14;3.95;;;2.03;;
43487;SDS011;29078;41.932;25.554;2022-09-27T17:13:44;3.22;;;2.20;;
43487;SDS011;29078;41.932;25.554;2022-09-27T17:16:10;5.85;;;2.42;;
43487;SDS011;29078;41.932;25.554;2022-09-27T17:18:38;6.50;;;2.03;;
43487;SDS011;29078;41.932;25.554;2022-09-27T17:21:05;5.45;;;2.17;;
43487;SDS011;29078;41.932;25.554;2022-09-27T17:23:32;3.72;;;1.83;;
43487;SDS011;29078;41.932;25.554;2022-09-27T17:26:02;4.68;;;2.28;;
43487;SDS011;29078;41.932;25.554;2022-09-27T17:28:30;4.22;;;2.28;;
43487;SDS011;29078;41.932;25.554;2022-09-27T17:31:02;4.90;;;2.15;;
43487;SDS011;29078;41.932;25.554;2022-09-27T17:33:29;3.75;;;1.80;;
43487;SDS011;29078;41.932;25.554;2022-09-27T17:35:59;4.32;;;1.80;;
43487;SDS011;29078;41.932;25.554;2022-09-27T17:38:27;3.60;;;2.00;;
43487;SDS011;29078;41.932;25.554;2022-09-27T17:41:00;4.88;;;2.00;;
43487;SDS011;29078;41.932;25.554;2022-09-27T17:43:29;4.95;;;1.85;;
43487;SDS011;29078;41.932;25.554;2022-09-27T17:46:05;3.03;;;2.13;;
43487;SDS011;29078;41.932;25.554;2022-09-27T17:48:33;4.30;;;2.10;;
43487;SDS011;29078;41.932;25.554;2022-09-27T17:51:17;5.45;;;2.00;;